createdAt,value
2023-02-05T00:00:23.860Z,1036.54
2023-02-05T00:01:26.970Z,1036.54
2023-02-05T00:02:30.496Z,1036.52
2023-02-05T00:04:06.222Z,1036.47
2023-02-05T00:05:09.370Z,1036.46
2023-02-05T00:06:12.669Z,1036.39
2023-02-05T00:07:48.049Z,1036.42
2023-02-05T00:08:51.192Z,1036.36
2023-02-05T00:09:54.169Z,1036.33
2023-02-05T00:11:29.405Z,1036.23
2023-02-05T00:12:32.406Z,1036.19
2023-02-05T00:13:35.808Z,1036.17
2023-02-05T00:15:11.095Z,1036.12
2023-02-05T00:16:14.275Z,1036.08
2023-02-05T00:17:17.764Z,1036.07
2023-02-05T00:18:52.861Z,1035.88
2023-02-05T00:19:56.231Z,1035.84
2023-02-05T00:20:59.567Z,1035.78
2023-02-05T00:22:36.251Z,1035.68
2023-02-05T00:23:39.355Z,1035.72
2023-02-05T00:24:42.418Z,1035.75
2023-02-05T00:26:18.030Z,1035.82
2023-02-05T00:27:21.106Z,1035.88
2023-02-05T00:28:24.296Z,1035.91
2023-02-05T00:29:59.447Z,1036.02
2023-02-05T00:31:03.172Z,1035.97
2023-02-05T00:32:07.057Z,1036.00
2023-02-05T00:33:42.374Z,1035.96
2023-02-05T00:34:45.640Z,1035.97
2023-02-05T00:35:49.004Z,1035.91
2023-02-05T00:37:24.120Z,1035.88
2023-02-05T00:38:27.361Z,1035.87
2023-02-05T00:39:30.410Z,1035.83
2023-02-05T00:41:05.396Z,1035.74
2023-02-05T00:42:08.714Z,1035.64
2023-02-05T00:43:11.844Z,1035.64
2023-02-05T00:44:47.292Z,1035.67
2023-02-05T00:45:50.648Z,1035.70
2023-02-05T00:46:54.201Z,1035.75
2023-02-05T00:48:29.557Z,1035.77
2023-02-05T00:49:32.565Z,1035.79
2023-02-05T00:50:35.596Z,1035.75
2023-02-05T00:52:11.001Z,1035.74
2023-02-05T00:53:14.256Z,1035.77
2023-02-05T00:54:17.643Z,1035.84
2023-02-05T00:55:52.704Z,1035.82
2023-02-05T00:56:56.427Z,1035.80
2023-02-05T00:57:59.695Z,1035.79
2023-02-05T00:59:35.500Z,1035.79
2023-02-05T01:00:23.521Z,1035.79
2023-02-05T01:01:26.866Z,1035.76
2023-02-05T01:02:30.514Z,1035.76
2023-02-05T01:04:05.744Z,1035.77
2023-02-05T01:05:09.062Z,1035.75
2023-02-05T01:06:12.109Z,1035.70
2023-02-05T01:07:47.902Z,1035.74
2023-02-05T01:08:51.078Z,1035.71
2023-02-05T01:09:53.977Z,1035.69
2023-02-05T01:11:28.854Z,1035.71
2023-02-05T01:12:31.870Z,1035.80
2023-02-05T01:13:35.051Z,1035.81
2023-02-05T01:15:10.336Z,1035.75
2023-02-05T01:16:13.743Z,1035.72
2023-02-05T01:17:17.160Z,1035.68
2023-02-05T01:18:52.449Z,1035.75
2023-02-05T01:19:55.517Z,1035.82
2023-02-05T01:20:58.804Z,1035.81
2023-02-05T01:22:33.799Z,1035.87
2023-02-05T01:23:36.896Z,1035.83
2023-02-05T01:24:40.145Z,1035.82
2023-02-05T01:26:15.559Z,1035.78
2023-02-05T01:27:18.877Z,1035.82
2023-02-05T01:28:22.281Z,1035.77
2023-02-05T01:29:57.507Z,1035.81
2023-02-05T01:31:01.242Z,1035.78
2023-02-05T01:32:04.937Z,1035.78
2023-02-05T01:33:39.861Z,1035.78
2023-02-05T01:34:43.210Z,1035.81
2023-02-05T01:35:46.945Z,1035.78
2023-02-05T01:37:22.237Z,1035.82
2023-02-05T01:38:25.367Z,1035.80
2023-02-05T01:39:28.721Z,1035.80
2023-02-05T01:41:03.851Z,1035.83
2023-02-05T01:42:06.914Z,1035.81
2023-02-05T01:43:10.089Z,1035.85
2023-02-05T01:44:44.946Z,1035.78
2023-02-05T01:45:48.127Z,1035.74
2023-02-05T01:46:51.382Z,1035.74
2023-02-05T01:48:26.742Z,1035.77
2023-02-05T01:49:29.954Z,1035.85
2023-02-05T01:50:33.114Z,1035.84
2023-02-05T01:52:08.044Z,1035.78
2023-02-05T01:53:11.070Z,1035.78
2023-02-05T01:54:14.089Z,1035.77
2023-02-05T01:55:49.228Z,1035.81
2023-02-05T01:56:52.650Z,1035.78
2023-02-05T01:57:55.438Z,1035.79
2023-02-05T01:59:30.444Z,1035.79
2023-02-05T02:00:23.814Z,1035.78
2023-02-05T02:01:27.186Z,1035.76
2023-02-05T02:02:30.643Z,1035.77
2023-02-05T02:04:05.796Z,1035.67
2023-02-05T02:05:09.138Z,1035.62
2023-02-05T02:06:12.466Z,1035.60
2023-02-05T02:07:47.798Z,1035.69
2023-02-05T02:08:50.925Z,1035.69
2023-02-05T02:09:54.215Z,1035.72
2023-02-05T02:11:29.462Z,1035.61
2023-02-05T02:12:32.757Z,1035.52
2023-02-05T02:13:36.010Z,1035.46
2023-02-05T02:15:11.692Z,1035.33
2023-02-05T02:16:14.962Z,1035.36
2023-02-05T02:17:18.691Z,1035.35
2023-02-05T02:18:53.703Z,1035.33
2023-02-05T02:19:56.979Z,1035.23
2023-02-05T02:21:00.295Z,1035.21
2023-02-05T02:22:35.360Z,1035.17
2023-02-05T02:23:38.526Z,1035.24
2023-02-05T02:24:41.813Z,1035.26
2023-02-05T02:26:17.241Z,1035.27
2023-02-05T02:27:20.597Z,1035.26
2023-02-05T02:28:23.889Z,1035.24
2023-02-05T02:29:59.187Z,1035.20
2023-02-05T02:31:02.715Z,1035.19
2023-02-05T02:32:06.179Z,1035.19
2023-02-05T02:33:41.341Z,1035.21
2023-02-05T02:34:44.387Z,1035.25
2023-02-05T02:35:47.911Z,1035.21
2023-02-05T02:37:23.242Z,1035.25
2023-02-05T02:38:26.635Z,1035.25
2023-02-05T02:39:29.626Z,1035.28
2023-02-05T02:41:04.960Z,1035.28
2023-02-05T02:42:08.276Z,1035.28
2023-02-05T02:43:11.393Z,1035.22
2023-02-05T02:44:46.839Z,1035.21
2023-02-05T02:45:50.160Z,1035.22
2023-02-05T02:46:53.686Z,1035.12
2023-02-05T02:48:29.137Z,1035.11
2023-02-05T02:49:32.364Z,1035.02
2023-02-05T02:50:35.473Z,1034.99
2023-02-05T02:52:10.684Z,1035.00
2023-02-05T02:53:14.125Z,1034.99
2023-02-05T02:54:17.228Z,1035.01
2023-02-05T02:55:55.112Z,1034.97
2023-02-05T02:56:58.242Z,1034.96
2023-02-05T02:58:01.480Z,1034.93
2023-02-05T02:59:36.741Z,1034.91
2023-02-05T03:00:23.628Z,1034.89
2023-02-05T03:01:27.261Z,1034.91
2023-02-05T03:02:40.014Z,1034.88
2023-02-05T03:04:15.129Z,1034.91
2023-02-05T03:05:18.535Z,1034.93
2023-02-05T03:06:23.026Z,1034.88
2023-02-05T03:07:58.372Z,1034.88
2023-02-05T03:09:01.339Z,1034.89
2023-02-05T03:10:04.621Z,1034.88
2023-02-05T03:11:40.406Z,1034.91
2023-02-05T03:12:43.463Z,1034.87
2023-02-05T03:13:46.916Z,1034.88
2023-02-05T03:15:21.945Z,1034.90
2023-02-05T03:16:25.636Z,1034.91
2023-02-05T03:17:29.240Z,1034.94
2023-02-05T03:19:04.397Z,1034.94
2023-02-05T03:20:07.740Z,1034.93
2023-02-05T03:21:10.983Z,1034.92
2023-02-05T03:22:46.331Z,1034.94
2023-02-05T03:23:49.748Z,1034.98
2023-02-05T03:24:52.828Z,1034.98
2023-02-05T03:26:28.388Z,1035.02
2023-02-05T03:27:31.473Z,1035.06
2023-02-05T03:28:35.078Z,1035.08
2023-02-05T03:30:10.444Z,1035.11
2023-02-05T03:31:14.153Z,1035.06
2023-02-05T03:32:17.560Z,1035.06
2023-02-05T03:33:52.676Z,1035.04
2023-02-05T03:34:56.030Z,1035.00
2023-02-05T03:35:59.559Z,1034.98
2023-02-05T03:37:35.038Z,1035.00
2023-02-05T03:38:38.188Z,1035.05
2023-02-05T03:39:41.477Z,1035.08
2023-02-05T03:41:16.477Z,1035.18
2023-02-05T03:42:19.505Z,1035.18
2023-02-05T03:43:22.806Z,1035.14
2023-02-05T03:44:57.830Z,1035.17
2023-02-05T03:46:01.303Z,1035.17
2023-02-05T03:47:04.445Z,1035.14
2023-02-05T03:48:39.830Z,1035.13
2023-02-05T03:49:42.937Z,1035.12
2023-02-05T03:50:45.894Z,1035.08
2023-02-05T03:52:21.141Z,1035.05
2023-02-05T03:53:24.262Z,1034.98
2023-02-05T03:54:27.417Z,1034.96
2023-02-05T03:56:02.583Z,1034.96
2023-02-05T03:57:06.049Z,1034.88
2023-02-05T03:58:09.442Z,1034.85
2023-02-05T03:59:44.409Z,1034.83
2023-02-05T04:00:23.299Z,1034.83
2023-02-05T04:01:26.814Z,1034.90
2023-02-05T04:02:30.405Z,1034.87
2023-02-05T04:04:06.044Z,1034.89
2023-02-05T04:05:09.047Z,1034.88
2023-02-05T04:06:12.153Z,1034.90
2023-02-05T04:07:47.308Z,1034.89
2023-02-05T04:08:50.605Z,1034.93
2023-02-05T04:09:53.865Z,1034.94
2023-02-05T04:11:28.695Z,1034.96
2023-02-05T04:12:32.018Z,1034.96
2023-02-05T04:13:35.140Z,1034.93
2023-02-05T04:15:10.204Z,1034.92
2023-02-05T04:16:13.338Z,1034.91
2023-02-05T04:17:16.522Z,1034.92
2023-02-05T04:18:51.868Z,1034.93
2023-02-05T04:19:54.627Z,1034.94
2023-02-05T04:20:57.745Z,1034.86
2023-02-05T04:22:33.021Z,1034.87
2023-02-05T04:23:36.303Z,1034.84
2023-02-05T04:24:39.531Z,1034.90
2023-02-05T04:26:14.663Z,1034.84
2023-02-05T04:27:17.783Z,1034.86
2023-02-05T04:28:20.977Z,1034.85
2023-02-05T04:29:56.847Z,1034.87
2023-02-05T04:31:00.747Z,1034.93
2023-02-05T04:32:04.304Z,1034.92
2023-02-05T04:33:39.355Z,1034.93
2023-02-05T04:34:42.541Z,1034.91
2023-02-05T04:35:46.417Z,1034.92
2023-02-05T04:37:21.515Z,1034.94
2023-02-05T04:38:24.468Z,1034.89
2023-02-05T04:39:27.974Z,1034.90
2023-02-05T04:41:03.133Z,1034.91
2023-02-05T04:42:06.331Z,1034.89
2023-02-05T04:43:09.289Z,1034.91
2023-02-05T04:44:44.651Z,1034.90
2023-02-05T04:45:48.280Z,1034.89
2023-02-05T04:46:52.172Z,1034.92
2023-02-05T04:48:27.542Z,1034.94
2023-02-05T04:49:30.709Z,1034.93
2023-02-05T04:50:33.877Z,1034.95
2023-02-05T04:52:09.079Z,1034.95
2023-02-05T04:53:12.127Z,1034.94
2023-02-05T04:54:15.309Z,1034.90
2023-02-05T04:55:50.197Z,1034.88
2023-02-05T04:56:53.435Z,1034.91
2023-02-05T04:57:58.429Z,1034.87
2023-02-05T04:59:33.843Z,1034.90
2023-02-05T05:00:24.062Z,1034.91
2023-02-05T05:01:27.552Z,1034.93
2023-02-05T05:02:31.214Z,1034.88
2023-02-05T05:04:06.897Z,1034.87
2023-02-05T05:05:52.862Z,1034.87
2023-02-05T05:06:56.301Z,1034.90
2023-02-05T05:07:59.624Z,1034.98
2023-02-05T05:09:35.375Z,1034.93
2023-02-05T05:10:38.979Z,1035.00
2023-02-05T05:11:42.513Z,1034.96
2023-02-05T05:13:18.062Z,1035.04
2023-02-05T05:14:21.414Z,1035.02
2023-02-05T05:15:24.823Z,1035.00
2023-02-05T05:17:01.606Z,1034.95
2023-02-05T05:18:04.724Z,1034.95
2023-02-05T05:19:08.092Z,1034.95
2023-02-05T05:20:43.467Z,1034.95
2023-02-05T05:21:46.985Z,1034.96
2023-02-05T05:22:50.146Z,1034.97
2023-02-05T05:24:25.372Z,1034.93
2023-02-05T05:25:28.578Z,1034.91
2023-02-05T05:26:32.421Z,1034.91
2023-02-05T05:28:07.845Z,1034.92
2023-02-05T05:29:11.256Z,1034.92
2023-02-05T05:30:14.708Z,1034.96
2023-02-05T05:31:50.432Z,1034.90
2023-02-05T05:32:54.105Z,1034.91
2023-02-05T05:33:57.440Z,1034.91
2023-02-05T05:35:33.330Z,1034.88
2023-02-05T05:36:37.071Z,1034.87
2023-02-05T05:37:40.365Z,1034.83
2023-02-05T05:39:15.804Z,1034.80
2023-02-05T05:40:18.930Z,1034.77
2023-02-05T05:41:22.286Z,1034.77
2023-02-05T05:42:57.453Z,1034.79
2023-02-05T05:44:00.875Z,1034.75
2023-02-05T05:45:04.303Z,1034.75
2023-02-05T05:46:40.001Z,1034.72
2023-02-05T05:47:43.508Z,1034.73
2023-02-05T05:48:46.870Z,1034.64
2023-02-05T05:50:22.130Z,1034.70
2023-02-05T05:51:25.423Z,1034.69
2023-02-05T05:52:30.902Z,1034.71
2023-02-05T05:54:07.686Z,1034.75
2023-02-05T05:55:11.006Z,1034.76
2023-02-05T05:56:14.434Z,1034.70
2023-02-05T05:57:49.876Z,1034.64
2023-02-05T05:58:53.782Z,1034.69
2023-02-05T05:59:56.968Z,1034.69
2023-02-05T06:00:23.690Z,1034.72
2023-02-05T06:01:27.099Z,1034.72
2023-02-05T06:02:30.468Z,1034.78
2023-02-05T06:04:09.382Z,1034.74
2023-02-05T06:05:12.842Z,1034.73
2023-02-05T06:06:16.185Z,1034.72
2023-02-05T06:07:51.594Z,1034.69
2023-02-05T06:08:54.890Z,1034.68
2023-02-05T06:09:58.101Z,1034.65
2023-02-05T06:11:33.341Z,1034.63
2023-02-05T06:12:36.506Z,1034.66
2023-02-05T06:13:39.441Z,1034.70
2023-02-05T06:15:14.651Z,1034.58
2023-02-05T06:16:18.519Z,1034.76
2023-02-05T06:17:22.019Z,1034.76
2023-02-05T06:18:57.471Z,1034.81
2023-02-05T06:20:00.756Z,1034.78
2023-02-05T06:21:04.061Z,1034.84
2023-02-05T06:22:39.278Z,1034.77
2023-02-05T06:23:42.516Z,1034.75
2023-02-05T06:24:45.692Z,1034.80
2023-02-05T06:26:21.648Z,1034.82
2023-02-05T06:27:24.979Z,1034.86
2023-02-05T06:28:28.730Z,1034.92
2023-02-05T06:30:04.056Z,1034.93
2023-02-05T06:31:07.746Z,1034.94
2023-02-05T06:32:11.997Z,1034.96
2023-02-05T06:33:50.782Z,1034.98
2023-02-05T06:34:54.061Z,1035.10
2023-02-05T06:35:57.125Z,1035.03
2023-02-05T06:37:52.702Z,1035.06
2023-02-05T06:38:55.884Z,1035.04
2023-02-05T06:39:59.110Z,1035.08
2023-02-05T06:41:34.564Z,1035.18
2023-02-05T06:42:37.785Z,1035.19
2023-02-05T06:43:41.234Z,1035.16
2023-02-05T06:45:16.760Z,1035.27
2023-02-05T06:46:20.525Z,1035.23
2023-02-05T06:47:23.932Z,1035.33
2023-02-05T06:48:59.111Z,1035.29
2023-02-05T06:50:02.431Z,1035.33
2023-02-05T06:51:05.654Z,1035.37
2023-02-05T06:52:41.165Z,1035.51
2023-02-05T06:53:44.624Z,1035.38
2023-02-05T06:54:47.852Z,1035.55
2023-02-05T06:56:23.530Z,1035.48
2023-02-05T06:57:26.525Z,1035.49
2023-02-05T06:58:29.868Z,1035.53
2023-02-05T07:00:23.243Z,1035.53
2023-02-05T07:01:27.695Z,1035.60
2023-02-05T07:02:31.233Z,1035.58
2023-02-05T07:04:06.944Z,1035.60
2023-02-05T07:05:10.350Z,1035.56
2023-02-05T07:06:13.683Z,1035.55
2023-02-05T07:07:49.918Z,1035.61
2023-02-05T07:08:53.226Z,1035.67
2023-02-05T07:09:56.317Z,1035.64
2023-02-05T07:11:31.577Z,1035.67
2023-02-05T07:12:34.966Z,1035.71
2023-02-05T07:13:38.253Z,1035.69
2023-02-05T07:15:13.469Z,1035.69
2023-02-05T07:16:17.012Z,1035.63
2023-02-05T07:17:20.030Z,1035.73
2023-02-05T07:18:55.522Z,1035.78
2023-02-05T07:19:58.949Z,1035.83
2023-02-05T07:21:02.002Z,1035.85
2023-02-05T07:22:37.318Z,1035.91
2023-02-05T07:23:40.638Z,1035.94
2023-02-05T07:24:43.992Z,1035.91
2023-02-05T07:26:22.713Z,1035.98
2023-02-05T07:27:25.984Z,1036.01
2023-02-05T07:28:29.552Z,1036.01
2023-02-05T07:30:04.907Z,1036.08
2023-02-05T07:31:11.765Z,1036.02
2023-02-05T07:32:15.885Z,1036.07
2023-02-05T07:33:51.039Z,1036.16
2023-02-05T07:34:54.346Z,1036.23
2023-02-05T07:35:57.473Z,1036.19
2023-02-05T07:37:33.054Z,1036.11
2023-02-05T07:38:36.418Z,1036.16
2023-02-05T07:39:39.860Z,1036.16
2023-02-05T07:41:14.823Z,1036.15
2023-02-05T07:42:18.177Z,1036.24
2023-02-05T07:43:23.489Z,1036.31
2023-02-05T07:44:59.015Z,1036.23
2023-02-05T07:46:02.334Z,1036.27
2023-02-05T07:47:05.842Z,1036.34
2023-02-05T07:48:41.662Z,1036.33
2023-02-05T07:49:44.754Z,1036.35
2023-02-05T07:50:48.185Z,1036.42
2023-02-05T07:52:24.227Z,1036.44
2023-02-05T07:53:27.851Z,1036.43
2023-02-05T07:54:30.945Z,1036.43
2023-02-05T07:56:06.318Z,1036.46
2023-02-05T07:57:12.532Z,1036.49
2023-02-05T07:58:15.500Z,1036.50
2023-02-05T07:59:50.811Z,1036.45
2023-02-05T08:00:24.178Z,1036.47
2023-02-05T08:01:27.667Z,1036.48
2023-02-05T08:02:31.038Z,1036.46
2023-02-05T08:04:09.365Z,1036.51
2023-02-05T08:05:12.758Z,1036.58
2023-02-05T08:06:16.007Z,1036.63
2023-02-05T08:07:51.155Z,1036.60
2023-02-05T08:08:54.409Z,1036.64
2023-02-05T08:09:57.755Z,1036.55
2023-02-05T08:11:32.957Z,1036.67
2023-02-05T08:12:36.129Z,1036.64
2023-02-05T08:13:39.509Z,1036.65
2023-02-05T08:15:15.091Z,1036.64
2023-02-05T08:16:18.732Z,1036.71
2023-02-05T08:17:22.352Z,1036.69
2023-02-05T08:18:57.462Z,1036.70
2023-02-05T08:20:00.833Z,1036.66
2023-02-05T08:21:04.159Z,1036.66
2023-02-05T08:22:39.682Z,1036.74
2023-02-05T08:23:43.031Z,1036.72
2023-02-05T08:24:46.402Z,1036.71
2023-02-05T08:26:22.674Z,1036.75
2023-02-05T08:27:25.901Z,1036.76
2023-02-05T08:28:29.678Z,1036.78
2023-02-05T08:30:05.238Z,1036.75
2023-02-05T08:31:08.457Z,1036.80
2023-02-05T08:32:12.040Z,1036.79
2023-02-05T08:33:47.508Z,1036.83
2023-02-05T08:34:50.849Z,1036.82
2023-02-05T08:35:54.200Z,1036.77
2023-02-05T08:37:29.894Z,1036.81
2023-02-05T08:38:33.334Z,1036.75
2023-02-05T08:39:36.663Z,1036.78
2023-02-05T08:41:12.208Z,1036.82
2023-02-05T08:42:15.350Z,1036.80
2023-02-05T08:43:18.701Z,1036.81
2023-02-05T08:44:54.369Z,1036.81
2023-02-05T08:45:57.924Z,1036.67
2023-02-05T08:47:02.055Z,1036.76
2023-02-05T08:48:37.361Z,1036.73
2023-02-05T08:49:41.733Z,1036.75
2023-02-05T08:50:45.283Z,1036.79
2023-02-05T08:52:20.537Z,1036.79
2023-02-05T08:53:24.078Z,1036.80
2023-02-05T08:54:27.323Z,1036.85
2023-02-05T08:56:02.569Z,1036.85
2023-02-05T08:57:06.677Z,1036.86
2023-02-05T08:58:10.104Z,1036.84
2023-02-05T08:59:45.598Z,1036.74
2023-02-05T09:00:23.918Z,1036.74
2023-02-05T09:01:27.686Z,1036.86
2023-02-05T09:02:35.125Z,1036.72
2023-02-05T09:04:10.914Z,1036.75
2023-02-05T09:05:20.770Z,1036.71
2023-02-05T09:06:24.480Z,1036.72
2023-02-05T09:07:59.928Z,1036.78
2023-02-05T09:09:03.360Z,1036.81
2023-02-05T09:10:06.847Z,1036.79
2023-02-05T09:11:42.327Z,1036.81
2023-02-05T09:12:45.755Z,1036.82
2023-02-05T09:13:49.079Z,1036.80
2023-02-05T09:15:24.509Z,1036.85
2023-02-05T09:16:28.350Z,1036.79
2023-02-05T09:17:31.943Z,1036.84
2023-02-05T09:19:07.364Z,1036.79
2023-02-05T09:20:10.643Z,1036.84
2023-02-05T09:21:14.154Z,1036.82
2023-02-05T09:22:51.888Z,1036.80
2023-02-05T09:23:55.054Z,1036.85
2023-02-05T09:24:58.376Z,1036.81
2023-02-05T09:26:34.289Z,1036.79
2023-02-05T09:27:37.493Z,1036.79
2023-02-05T09:28:40.815Z,1036.79
2023-02-05T09:30:16.354Z,1036.79
2023-02-05T09:31:20.399Z,1036.87
2023-02-05T09:32:24.311Z,1036.75
2023-02-05T09:33:59.541Z,1036.87
2023-02-05T09:35:02.785Z,1036.90
2023-02-05T09:36:06.106Z,1036.97
2023-02-05T09:37:41.485Z,1037.00
2023-02-05T09:38:44.696Z,1036.96
2023-02-05T09:40:58.436Z,1037.02
2023-02-05T09:42:34.047Z,1037.06
2023-02-05T09:43:37.507Z,1037.03
2023-02-05T09:44:40.591Z,1036.98
2023-02-05T09:46:15.950Z,1037.01
2023-02-05T09:47:19.169Z,1037.01
2023-02-05T09:48:22.700Z,1036.98
2023-02-05T09:49:57.568Z,1037.01
2023-02-05T09:51:03.366Z,1037.10
2023-02-05T09:52:06.268Z,1037.07
2023-02-05T09:53:41.353Z,1037.04
2023-02-05T09:54:44.399Z,1037.17
2023-02-05T09:55:47.803Z,1037.01
2023-02-05T09:57:25.958Z,1037.01
2023-02-05T09:58:29.089Z,1037.09
2023-02-05T09:59:32.324Z,1037.14
2023-02-05T10:00:23.350Z,1037.23
2023-02-05T10:01:26.505Z,1037.12
2023-02-05T10:02:29.935Z,1037.07
2023-02-05T10:04:05.144Z,1037.07
2023-02-05T10:05:08.383Z,1037.02
2023-02-05T10:06:11.422Z,1037.13
2023-02-05T10:07:46.815Z,1037.06
2023-02-05T10:08:49.944Z,1037.12
2023-02-05T10:09:53.400Z,1037.13
2023-02-05T10:11:28.433Z,1037.12
2023-02-05T10:12:31.493Z,1037.12
2023-02-05T10:13:34.557Z,1037.11
2023-02-05T10:15:09.573Z,1036.98
2023-02-05T10:16:12.843Z,1037.08
2023-02-05T10:17:15.765Z,1037.13
2023-02-05T10:18:50.751Z,1037.10
2023-02-05T10:19:53.670Z,1037.06
2023-02-05T10:20:59.268Z,1037.10
2023-02-05T10:22:34.336Z,1037.03
2023-02-05T10:23:37.511Z,1037.16
2023-02-05T10:24:40.931Z,1037.15
2023-02-05T10:26:16.154Z,1037.06
2023-02-05T10:27:19.230Z,1037.02
2023-02-05T10:28:22.407Z,1037.05
2023-02-05T10:29:57.270Z,1037.06
2023-02-05T10:31:00.624Z,1037.11
2023-02-05T10:32:04.606Z,1037.01
2023-02-05T10:33:39.585Z,1037.14
2023-02-05T10:34:42.756Z,1037.13
2023-02-05T10:35:46.816Z,1037.10
2023-02-05T10:37:21.653Z,1037.18
2023-02-05T10:38:24.828Z,1037.13
2023-02-05T10:39:28.047Z,1037.21
2023-02-05T10:41:05.886Z,1037.22
2023-02-05T10:42:09.080Z,1037.14
2023-02-05T10:43:12.554Z,1037.28
2023-02-05T10:44:47.911Z,1037.21
2023-02-05T10:45:51.397Z,1037.31
2023-02-05T10:46:54.931Z,1037.45
2023-02-05T10:48:29.634Z,1037.48
2023-02-05T10:49:32.610Z,1037.53
2023-02-05T10:50:36.141Z,1037.63
2023-02-05T10:52:11.389Z,1037.46
2023-02-05T10:53:14.484Z,1037.63
2023-02-05T10:54:17.753Z,1037.79
2023-02-05T10:55:53.080Z,1037.51
2023-02-05T10:56:56.210Z,1037.76
2023-02-05T10:57:59.316Z,1037.72
2023-02-05T10:59:34.978Z,1037.65
2023-02-05T11:00:24.010Z,1037.68
2023-02-05T11:01:28.342Z,1037.69
2023-02-05T11:02:31.676Z,1037.72
2023-02-05T11:04:06.893Z,1037.79
2023-02-05T11:05:09.905Z,1037.73
2023-02-05T11:06:12.933Z,1037.72
2023-02-05T11:07:47.878Z,1037.83
2023-02-05T11:08:50.840Z,1037.91
2023-02-05T11:09:53.926Z,1037.94
2023-02-05T11:11:29.559Z,1037.91
2023-02-05T11:12:33.762Z,1037.86
2023-02-05T11:13:37.165Z,1037.85
2023-02-05T11:15:12.185Z,1037.81
2023-02-05T11:16:15.659Z,1037.98
2023-02-05T11:17:19.184Z,1038.00
2023-02-05T11:18:54.981Z,1038.02
2023-02-05T11:20:00.939Z,1038.09
2023-02-05T11:21:04.059Z,1038.09
2023-02-05T11:22:38.955Z,1038.10
2023-02-05T11:23:42.390Z,1038.09
2023-02-05T11:24:45.274Z,1038.09
2023-02-05T11:26:23.077Z,1037.95
2023-02-05T11:27:26.122Z,1037.91
2023-02-05T11:28:29.362Z,1037.94
2023-02-05T11:30:04.515Z,1037.99
2023-02-05T11:31:39.154Z,1038.01
2023-02-05T11:32:42.919Z,1037.97
2023-02-05T11:34:17.989Z,1037.98
2023-02-05T11:35:21.319Z,1038.09
2023-02-05T11:36:24.372Z,1038.07
2023-02-05T11:37:59.605Z,1038.04
2023-02-05T11:39:04.121Z,1037.95
2023-02-05T11:40:06.986Z,1038.04
2023-02-05T11:41:41.853Z,1037.94
2023-02-05T11:42:44.966Z,1038.05
2023-02-05T11:43:47.856Z,1037.97
2023-02-05T11:45:23.020Z,1037.87
2023-02-05T11:46:26.251Z,1037.91
2023-02-05T11:47:29.746Z,1037.87
2023-02-05T11:49:05.131Z,1037.82
2023-02-05T11:50:08.079Z,1037.86
2023-02-05T11:51:11.316Z,1037.80
2023-02-05T11:52:46.343Z,1037.81
2023-02-05T11:53:49.423Z,1037.81
2023-02-05T11:54:52.347Z,1037.76
2023-02-05T11:56:30.543Z,1037.82
2023-02-05T11:57:33.523Z,1037.79
2023-02-05T11:58:48.114Z,1037.91
2023-02-05T12:00:23.545Z,1038.00
2023-02-05T12:01:26.979Z,1038.04
2023-02-05T12:02:33.229Z,1038.06
2023-02-05T12:04:08.537Z,1038.15
2023-02-05T12:05:11.682Z,1038.12
2023-02-05T12:06:15.065Z,1038.13
2023-02-05T12:07:50.210Z,1038.13
2023-02-05T12:08:55.585Z,1038.10
2023-02-05T12:09:58.532Z,1038.17
2023-02-05T12:11:34.075Z,1038.04
2023-02-05T12:12:37.035Z,1038.09
2023-02-05T12:13:40.153Z,1038.10
2023-02-05T12:15:15.087Z,1038.08
2023-02-05T12:16:18.299Z,1038.03
2023-02-05T12:17:21.674Z,1038.14
2023-02-05T12:18:56.635Z,1038.17
2023-02-05T12:19:59.749Z,1038.18
2023-02-05T12:21:02.933Z,1038.17
2023-02-05T12:22:37.824Z,1038.17
2023-02-05T12:23:40.912Z,1038.15
2023-02-05T12:24:44.046Z,1038.21
2023-02-05T12:26:19.764Z,1038.27
2023-02-05T12:27:22.965Z,1038.21
2023-02-05T12:28:26.281Z,1038.22
2023-02-05T12:30:01.601Z,1038.23
2023-02-05T12:31:04.829Z,1038.26
2023-02-05T12:32:08.054Z,1038.20
2023-02-05T12:33:43.082Z,1038.03
2023-02-05T12:34:46.230Z,1038.00
2023-02-05T12:35:49.100Z,1038.03
2023-02-05T12:37:24.330Z,1038.05
2023-02-05T12:38:38.934Z,1038.06
2023-02-05T12:39:42.084Z,1038.05
2023-02-05T12:41:17.809Z,1038.05
2023-02-05T12:42:21.352Z,1038.08
2023-02-05T12:43:24.414Z,1038.15
2023-02-05T12:44:59.744Z,1038.11
2023-02-05T12:46:03.400Z,1038.07
2023-02-05T12:47:06.548Z,1038.15
2023-02-05T12:48:41.353Z,1038.19
2023-02-05T12:49:48.626Z,1038.15
2023-02-05T12:50:51.781Z,1038.19
2023-02-05T12:52:26.513Z,1038.17
2023-02-05T12:53:29.489Z,1038.23
2023-02-05T12:54:32.707Z,1038.23
2023-02-05T12:56:09.030Z,1038.31
2023-02-05T12:57:12.227Z,1038.33
2023-02-05T12:58:15.416Z,1038.28
2023-02-05T12:59:50.483Z,1038.30
2023-02-05T13:00:23.982Z,1038.30
2023-02-05T13:01:27.893Z,1038.33
2023-02-05T13:02:30.895Z,1038.28
2023-02-05T13:04:07.243Z,1038.29
2023-02-05T13:05:10.687Z,1038.25
2023-02-05T13:06:13.764Z,1038.29
2023-02-05T13:07:48.413Z,1038.35
2023-02-05T13:08:51.461Z,1038.32
2023-02-05T13:09:54.458Z,1038.29
2023-02-05T13:11:30.827Z,1038.28
2023-02-05T13:12:33.848Z,1038.32
2023-02-05T13:13:36.908Z,1038.29
2023-02-05T13:15:11.777Z,1038.41
2023-02-05T13:16:14.849Z,1038.42
2023-02-05T13:17:21.755Z,1038.44
2023-02-05T13:18:56.922Z,1038.47
2023-02-05T13:20:00.190Z,1038.47
2023-02-05T13:21:03.114Z,1038.41
2023-02-05T13:22:40.673Z,1038.41
2023-02-05T13:23:43.797Z,1038.47
2023-02-05T13:24:47.036Z,1038.45
2023-02-05T13:26:34.641Z,1038.49
2023-02-05T13:27:37.720Z,1038.44
2023-02-05T13:28:41.006Z,1038.55
2023-02-05T13:30:16.526Z,1038.50
2023-02-05T13:31:21.193Z,1038.49
2023-02-05T13:32:27.458Z,1038.54
2023-02-05T13:34:02.584Z,1038.52
2023-02-05T13:35:05.789Z,1038.64
2023-02-05T13:36:08.804Z,1038.63
2023-02-05T13:37:43.881Z,1038.60
2023-02-05T13:38:46.902Z,1038.65
2023-02-05T13:39:50.103Z,1038.67
2023-02-05T13:41:25.470Z,1038.64
2023-02-05T13:42:28.448Z,1038.64
2023-02-05T13:43:31.411Z,1038.67
2023-02-05T13:45:06.318Z,1038.68
2023-02-05T13:46:09.801Z,1038.71
2023-02-05T13:47:12.911Z,1038.77
2023-02-05T13:48:48.197Z,1038.84
2023-02-05T13:49:51.513Z,1038.84
2023-02-05T13:50:54.668Z,1038.78
2023-02-05T13:52:29.737Z,1038.86
2023-02-05T13:53:34.318Z,1038.90
2023-02-05T13:54:37.051Z,1038.80
2023-02-05T13:56:11.778Z,1038.85
2023-02-05T13:57:14.828Z,1038.83
2023-02-05T13:58:18.016Z,1038.83
2023-02-05T13:59:52.909Z,1038.87
2023-02-05T14:00:23.581Z,1038.87
2023-02-05T14:01:27.026Z,1038.84
2023-02-05T14:02:30.771Z,1038.81
2023-02-05T14:04:06.283Z,1038.78
2023-02-05T14:05:09.407Z,1038.81
2023-02-05T14:06:15.073Z,1038.83
2023-02-05T14:07:50.427Z,1038.82
2023-02-05T14:08:53.577Z,1038.83
2023-02-05T14:09:56.645Z,1038.94
2023-02-05T14:11:31.808Z,1038.77
2023-02-05T14:12:34.879Z,1038.84
2023-02-05T14:13:38.056Z,1038.86
2023-02-05T14:15:13.151Z,1038.95
2023-02-05T14:16:16.487Z,1038.93
2023-02-05T14:17:19.589Z,1038.92
2023-02-05T14:18:54.245Z,1038.95
2023-02-05T14:19:57.469Z,1038.94
2023-02-05T14:21:00.635Z,1039.00
2023-02-05T14:22:36.088Z,1038.99
2023-02-05T14:23:39.429Z,1038.95
2023-02-05T14:24:42.717Z,1038.87
2023-02-05T14:26:18.322Z,1038.92
2023-02-05T14:27:21.620Z,1038.96
2023-02-05T14:28:24.874Z,1038.87
2023-02-05T14:30:00.042Z,1038.89
2023-02-05T14:31:03.575Z,1038.93
2023-02-05T14:32:08.911Z,1038.89
2023-02-05T14:33:43.958Z,1038.90
2023-02-05T14:34:49.425Z,1038.92
2023-02-05T14:35:52.459Z,1038.91
2023-02-05T14:37:27.639Z,1038.90
2023-02-05T14:38:30.636Z,1038.91
2023-02-05T14:39:33.928Z,1038.85
2023-02-05T14:41:09.118Z,1038.86
2023-02-05T14:42:12.073Z,1038.90
2023-02-05T14:43:21.985Z,1038.88
2023-02-05T14:44:57.033Z,1038.89
2023-02-05T14:46:00.673Z,1039.00
2023-02-05T14:47:04.325Z,1038.99
2023-02-05T14:48:39.284Z,1038.97
2023-02-05T14:49:42.316Z,1039.00
2023-02-05T14:50:45.442Z,1039.04
2023-02-05T14:52:20.448Z,1039.09